Pointe-Calumet, Québec

9:23 AM EDT on March 30, 2015 (GMT -0400)
VE2YLC 101 41ieme, POINTE-CALUMET | | Change Station
CLOSE
Current Station
Personal Weather Station
Location: Pointe-Calumet, QUEBEC
Elevation: 82 ft
Nearby Weather Stations

Elev 82 ft 45.50 °N, 73.97 °W | Updated 222 days ago

Snow
Snow
35 °F
Feels Like 28 °F
N
11
Wind Variable Wind from South
Gusts 20 mph

Today
High -- | Low -- °F
--% Chance of Precip.
Yesterday
High -- | Low -- °F
Precip. -- in
6:40 AM 7:21 PM
Waxing Gibbous, 79% visible
Pressure 29.57 in
Visibility 4.0 miles
Clouds Few 1200 ft
Overcast 3000 ft
Windchill 28 °F
Dew Point 28 °F
Humidity 75%
Rainfall in
Snow Depth Not available.
UV 1 out of 12
Pollen Not available.
Air Quality Not available.
Flu Activity Not available.
SPECI CYUL 301308Z 15015KT 4SM -SN BR FEW012 OVC030 M01/M03 A2956 RMK SF1SC8 SF TR SLP012

More Conditions Fewer Conditions

Pressure 29.57 in
Visibility 4.0 miles
Clouds Few 1200 ft
Overcast 3000 ft
Windchill 28 °F
Dew Point 28 °F
Humidity 75%
Rainfall in
Snow Depth Not available.
UV 1 out of 12
Pollen Not available.
Air Quality Not available.
Flu Activity Not available.
SPECI CYUL 301308Z 15015KT 4SM -SN BR FEW012 OVC030 M01/M03 A2956 RMK SF1SC8 SF TR SLP012

More Conditions Fewer Conditions

10-Day Weather Forecast

Almanac

Astronomy

Mar. 30, 2015 Rise Set
Actual Time
Civil Twilight
Nautical Twilight
Astronomical Twilight
Moon
Length of Visible Light
Length of Day
Tomorrow will be .
, % of the Moon is Illuminated

Today's Extremes

Country Highs Country Lows

Community

WunderPhotos

Upload Photos

1,809,483 photos uploaded!

WunderBlogs® & News

Nearby

Air Quality

  Air Quality AQ Index Pollutant
Not available.

Snow Depth

Station Depth Elevation

Earthquake Activity

City Distance Mag. Time & Date
Minimum magnitude displayed is 2.5.

Coastal Water Temperatures

Place Temperature

Stations

Nearby Weather Stations

Station Location Temp. Windchill Dew Point Humidity Wind Precip. Elev Updated Type